createdAt,value
2022-11-14T00:02:30.378Z,9.80
2022-11-14T00:05:15.513Z,11.48
2022-11-14T00:08:00.433Z,13.68
2022-11-14T00:10:46.501Z,11.20
2022-11-14T00:13:31.556Z,11.95
2022-11-14T00:16:16.681Z,13.30
2022-11-14T00:19:01.496Z,11.73
2022-11-14T00:21:46.546Z,14.77
2022-11-14T00:24:31.500Z,13.05
2022-11-14T00:27:16.634Z,14.48
2022-11-14T00:30:01.570Z,13.02
2022-11-14T00:32:46.730Z,11.85
2022-11-14T00:35:31.673Z,15.07
2022-11-14T00:38:16.561Z,16.83
2022-11-14T00:41:01.737Z,15.00
2022-11-14T00:43:47.063Z,15.98
2022-11-14T00:46:32.006Z,15.02
2022-11-14T00:49:16.739Z,15.70
2022-11-14T00:52:01.832Z,14.32
2022-11-14T00:54:47.109Z,16.90
2022-11-14T00:57:32.187Z,15.32
2022-11-14T01:00:17.296Z,13.52
2022-11-14T01:03:02.418Z,16.27
2022-11-14T01:05:48.949Z,16.70
2022-11-14T01:08:33.912Z,21.20
2022-11-14T01:11:20.106Z,17.50
2022-11-14T01:14:08.624Z,18.58
2022-11-14T01:16:53.701Z,19.30
2022-11-14T01:19:38.628Z,18.10
2022-11-14T01:22:23.853Z,16.60
2022-11-14T01:25:08.821Z,18.38
2022-11-14T01:27:53.840Z,19.33
2022-11-14T01:30:39.324Z,20.23
2022-11-14T01:33:24.152Z,20.88
2022-11-14T01:36:09.821Z,21.40
2022-11-14T01:38:55.185Z,22.50
2022-11-14T01:41:40.088Z,23.52
2022-11-14T01:44:45.514Z,20.83
2022-11-14T01:47:32.019Z,23.55
2022-11-14T01:50:17.002Z,22.63
2022-11-14T01:53:02.095Z,22.45
2022-11-14T01:55:47.141Z,26.85
2022-11-14T01:58:34.609Z,25.00
2022-11-14T02:01:19.766Z,25.25
2022-11-14T02:04:06.631Z,24.23
2022-11-14T02:06:54.884Z,24.98
2022-11-14T02:09:40.869Z,25.27
2022-11-14T02:12:25.681Z,24.65
2022-11-14T02:15:11.619Z,25.92
2022-11-14T02:17:56.631Z,30.80
2022-11-14T02:20:43.413Z,22.38
2022-11-14T02:23:29.425Z,24.02
2022-11-14T02:26:16.984Z,24.50
2022-11-14T02:29:02.180Z,30.83
2022-11-14T02:31:47.019Z,24.63
2022-11-14T02:34:32.493Z,23.73
2022-11-14T02:37:17.360Z,22.65
2022-11-14T02:40:02.449Z,23.60
2022-11-14T02:42:47.616Z,27.63
2022-11-14T02:45:32.675Z,23.88
2022-11-14T02:48:17.565Z,28.35
2022-11-14T02:51:03.111Z,25.65
2022-11-14T02:53:48.263Z,26.98
2022-11-14T02:56:33.169Z,27.52
2022-11-14T02:59:18.092Z,24.13
2022-11-14T03:02:03.269Z,27.83
2022-11-14T03:04:48.240Z,26.55
2022-11-14T03:07:34.621Z,29.13
2022-11-14T03:10:19.967Z,23.65
2022-11-14T03:13:04.808Z,25.40
2022-11-14T03:15:49.848Z,25.98
2022-11-14T03:18:35.378Z,23.98
2022-11-14T03:21:21.369Z,27.60
2022-11-14T03:24:06.444Z,24.35
2022-11-14T03:26:51.980Z,26.90
2022-11-14T03:29:37.235Z,26.33
2022-11-14T03:32:22.204Z,27.80
2022-11-14T03:35:07.728Z,28.27
2022-11-14T03:37:56.146Z,28.48
2022-11-14T03:40:42.039Z,30.42
2022-11-14T03:43:30.180Z,40.80
2022-11-14T03:46:15.034Z,30.77
2022-11-14T03:48:59.964Z,27.70
2022-11-14T03:51:45.053Z,34.10
2022-11-14T03:54:29.861Z,31.50
2022-11-14T03:57:14.700Z,31.85
2022-11-14T04:00:00.589Z,31.70
2022-11-14T04:02:45.484Z,27.58
2022-11-14T04:05:30.559Z,30.38
2022-11-14T04:08:15.840Z,30.27
2022-11-14T04:11:01.012Z,29.95
2022-11-14T04:13:47.066Z,31.77
2022-11-14T04:16:32.129Z,26.33
2022-11-14T04:19:17.083Z,27.98
2022-11-14T04:22:02.020Z,29.48
2022-11-14T04:24:46.726Z,29.05
2022-11-14T04:27:31.783Z,29.83
2022-11-14T04:30:16.767Z,29.23
2022-11-14T04:33:01.544Z,25.00
2022-11-14T04:35:46.391Z,24.02
2022-11-14T04:38:32.607Z,27.08
2022-11-14T04:41:17.843Z,24.20
2022-11-14T04:44:02.944Z,28.63
2022-11-14T04:46:47.981Z,33.90
2022-11-14T04:49:32.867Z,24.65
2022-11-14T04:52:18.085Z,30.65
2022-11-14T04:55:03.372Z,26.95
2022-11-14T04:57:48.061Z,30.58
2022-11-14T05:00:33.201Z,26.48
2022-11-14T05:03:18.248Z,26.95
2022-11-14T05:06:03.616Z,24.08
2022-11-14T05:08:48.660Z,26.50
2022-11-14T05:11:33.904Z,26.13
2022-11-14T05:14:19.102Z,23.15
2022-11-14T05:17:03.945Z,24.95
2022-11-14T05:19:49.075Z,25.33
2022-11-14T05:22:33.990Z,25.90
2022-11-14T05:25:18.966Z,23.80
2022-11-14T05:28:04.080Z,23.08
2022-11-14T05:30:49.080Z,28.05
2022-11-14T05:33:34.612Z,23.25
2022-11-14T05:36:19.647Z,25.00
2022-11-14T05:39:04.646Z,20.77
2022-11-14T05:41:49.685Z,26.92
2022-11-14T05:44:34.545Z,27.92
2022-11-14T05:47:19.581Z,23.80
2022-11-14T05:50:04.936Z,23.98
2022-11-14T05:52:49.763Z,25.60
2022-11-14T05:55:34.727Z,26.02
2022-11-14T05:58:19.993Z,24.88
2022-11-14T06:01:05.169Z,26.73
2022-11-14T06:03:50.371Z,25.98
2022-11-14T06:06:35.442Z,24.88
2022-11-14T06:09:20.472Z,21.38
2022-11-14T06:12:07.756Z,21.38
2022-11-14T06:14:52.884Z,23.17
2022-11-14T06:17:37.946Z,21.92
2022-11-14T06:20:23.099Z,21.35
2022-11-14T06:23:08.031Z,19.38
2022-11-14T06:25:57.539Z,24.27
2022-11-14T06:28:42.581Z,24.50
2022-11-14T06:31:28.565Z,21.60
2022-11-14T06:34:13.776Z,22.98
2022-11-14T06:36:58.864Z,26.15
2022-11-14T06:39:43.876Z,26.45
2022-11-14T06:42:28.888Z,20.83
2022-11-14T06:45:14.194Z,21.20
2022-11-14T06:47:59.957Z,24.35
2022-11-14T06:50:50.684Z,24.60
2022-11-14T06:53:36.957Z,20.63
2022-11-14T06:56:21.908Z,20.27
2022-11-14T06:59:06.989Z,21.77
2022-11-14T07:01:51.989Z,21.63
2022-11-14T07:04:37.094Z,22.40
2022-11-14T07:07:22.230Z,24.65
2022-11-14T07:10:08.020Z,23.52
2022-11-14T07:12:52.892Z,23.30
2022-11-14T07:15:37.852Z,20.65
2022-11-14T07:18:22.545Z,23.38
2022-11-14T07:21:07.446Z,20.75
2022-11-14T07:23:52.620Z,24.17
2022-11-14T07:26:37.916Z,23.10
2022-11-14T07:29:22.902Z,23.10
2022-11-14T07:32:07.663Z,21.55
2022-11-14T07:34:52.625Z,20.30
2022-11-14T07:37:38.791Z,21.20
2022-11-14T07:40:23.949Z,17.40
2022-11-14T07:43:08.708Z,19.85
2022-11-14T07:45:53.958Z,15.80
2022-11-14T07:48:38.745Z,14.80
2022-11-14T07:51:23.821Z,14.07
2022-11-14T07:54:10.783Z,23.25
2022-11-14T07:56:56.636Z,11.70
2022-11-14T07:59:41.836Z,14.65
2022-11-14T08:02:27.924Z,15.95
2022-11-14T08:05:13.157Z,13.95
2022-11-14T08:07:58.137Z,17.30
2022-11-14T08:10:42.875Z,14.90
2022-11-14T08:13:33.016Z,16.63
2022-11-14T08:16:18.757Z,17.17
2022-11-14T08:19:03.951Z,16.88
2022-11-14T08:21:48.745Z,18.55
2022-11-14T08:24:33.698Z,16.88
2022-11-14T08:27:18.612Z,17.48
2022-11-14T08:30:04.024Z,20.88
2022-11-14T08:32:49.109Z,15.95
2022-11-14T08:35:34.159Z,15.35
2022-11-14T08:38:19.319Z,16.40
2022-11-14T08:41:05.568Z,15.52
2022-11-14T08:43:50.470Z,14.68
2022-11-14T08:46:35.443Z,14.10
2022-11-14T08:49:20.820Z,13.07
2022-11-14T08:52:05.978Z,14.57
2022-11-14T08:54:51.064Z,11.82
2022-11-14T08:57:36.128Z,12.88
2022-11-14T09:00:21.586Z,13.07
2022-11-14T09:03:10.323Z,18.88
2022-11-14T09:05:55.837Z,13.55
2022-11-14T09:08:40.630Z,13.85
2022-11-14T09:11:25.702Z,14.05
2022-11-14T09:14:10.584Z,13.10
2022-11-14T09:16:55.703Z,17.20
2022-11-14T09:19:40.927Z,15.32
2022-11-14T09:22:25.622Z,15.98
2022-11-14T09:25:10.431Z,16.92
2022-11-14T09:27:55.798Z,15.80
2022-11-14T09:30:41.511Z,18.10
2022-11-14T09:33:26.545Z,14.90
2022-11-14T09:36:15.728Z,15.25
2022-11-14T09:39:00.576Z,15.43
2022-11-14T09:42:03.126Z,16.75
2022-11-14T09:44:58.087Z,18.17
2022-11-14T09:47:44.088Z,18.63
2022-11-14T09:50:32.577Z,15.57
2022-11-14T09:53:22.912Z,18.83
2022-11-14T09:56:11.761Z,17.23
2022-11-14T09:58:56.796Z,17.65
2022-11-14T10:01:50.118Z,18.20
2022-11-14T10:04:47.245Z,20.25
2022-11-14T10:07:50.881Z,17.67
2022-11-14T10:10:41.561Z,19.05
2022-11-14T10:13:35.700Z,21.63
2022-11-14T10:16:35.844Z,16.25
2022-11-14T10:19:20.941Z,17.80
2022-11-14T10:22:15.666Z,17.10
2022-11-14T10:25:07.123Z,18.70
2022-11-14T10:28:07.415Z,19.35
2022-11-14T10:31:00.421Z,17.88
2022-11-14T10:36:45.848Z,22.92
2022-11-14T10:39:39.998Z,17.83
2022-11-14T10:42:37.060Z,18.15
2022-11-14T10:45:30.705Z,21.83
2022-11-14T10:48:29.040Z,22.58
2022-11-14T10:51:32.829Z,21.02
2022-11-14T10:54:36.281Z,22.85
2022-11-14T10:57:21.929Z,23.55
2022-11-14T11:00:14.052Z,23.17
2022-11-14T11:02:59.318Z,23.80
2022-11-14T11:05:45.464Z,24.88
2022-11-14T11:08:49.560Z,25.63
2022-11-14T11:11:34.752Z,26.80
2022-11-14T11:14:19.847Z,27.27
2022-11-14T11:17:21.625Z,27.75
2022-11-14T11:20:36.104Z,25.25
2022-11-14T11:23:23.962Z,27.73
2022-11-14T11:26:19.420Z,26.88
2022-11-14T11:29:14.708Z,26.02
2022-11-14T11:31:59.963Z,23.65
2022-11-14T11:34:46.167Z,26.60
2022-11-14T11:37:33.476Z,23.85
2022-11-14T11:40:20.450Z,27.85
2022-11-14T11:46:20.279Z,31.30
2022-11-14T11:49:11.031Z,26.77
2022-11-14T11:51:57.011Z,29.33
2022-11-14T11:54:49.223Z,30.15
2022-11-14T11:57:43.825Z,29.35
2022-11-14T12:00:29.168Z,25.58
2022-11-14T12:03:20.190Z,32.38
2022-11-14T12:06:24.623Z,26.90
2022-11-14T12:09:42.557Z,30.75
2022-11-14T12:12:45.244Z,29.67
2022-11-14T12:15:48.759Z,29.45
2022-11-14T12:18:52.304Z,29.63
2022-11-14T12:21:54.239Z,30.02
2022-11-14T12:24:45.433Z,31.00
2022-11-14T12:27:30.361Z,28.17
2022-11-14T12:30:21.656Z,28.38
2022-11-14T12:33:09.262Z,28.45
2022-11-14T12:35:56.438Z,28.25
2022-11-14T12:38:47.059Z,31.33
2022-11-14T12:41:33.806Z,28.83
2022-11-14T12:44:30.954Z,30.50
2022-11-14T12:47:20.345Z,33.72
2022-11-14T12:50:06.319Z,27.38
2022-11-14T12:52:52.786Z,31.60
2022-11-14T12:55:43.646Z,31.48
2022-11-14T12:58:46.911Z,27.05
2022-11-14T13:01:42.490Z,29.77
2022-11-14T13:04:42.422Z,32.40
2022-11-14T13:07:32.795Z,30.52
2022-11-14T13:10:29.684Z,26.98
2022-11-14T13:13:34.236Z,27.52
2022-11-14T13:16:42.960Z,26.83
2022-11-14T13:19:46.730Z,27.80
2022-11-14T13:22:39.301Z,30.38
2022-11-14T13:25:24.712Z,34.13
2022-11-14T13:28:35.995Z,32.58
2022-11-14T13:31:35.935Z,31.33
2022-11-14T13:34:39.296Z,31.20
2022-11-14T13:37:43.938Z,28.50
2022-11-14T13:40:38.303Z,25.77
2022-11-14T13:43:29.715Z,26.00
2022-11-14T13:46:39.136Z,31.73
2022-11-14T13:49:48.409Z,29.95
2022-11-14T13:52:34.350Z,28.48
2022-11-14T13:55:21.493Z,28.23
2022-11-14T13:58:21.427Z,29.08
2022-11-14T14:01:06.407Z,29.52
2022-11-14T14:03:57.335Z,25.33
2022-11-14T14:06:57.351Z,30.30
2022-11-14T14:09:42.146Z,30.33
2022-11-14T14:12:37.549Z,27.50
2022-11-14T14:15:26.525Z,26.13
2022-11-14T14:18:20.037Z,27.15
2022-11-14T14:21:27.193Z,27.50
2022-11-14T14:24:28.661Z,29.25
2022-11-14T14:27:26.008Z,30.65
2022-11-14T14:30:12.296Z,23.23
2022-11-14T14:33:03.091Z,29.20
2022-11-14T14:35:51.733Z,28.10
2022-11-14T14:38:38.017Z,28.17
2022-11-14T14:41:23.503Z,28.35
2022-11-14T14:44:34.723Z,31.00
2022-11-14T14:47:34.694Z,30.15
2022-11-14T14:50:23.576Z,28.65
2022-11-14T14:53:19.199Z,32.35
2022-11-14T14:56:05.716Z,24.42
2022-11-14T14:58:50.671Z,30.13
2022-11-14T15:01:35.943Z,30.73
2022-11-14T15:04:21.910Z,34.33
2022-11-14T15:07:17.334Z,28.08
2022-11-14T15:10:02.998Z,28.95
2022-11-14T15:12:48.304Z,28.98
2022-11-14T15:15:33.978Z,27.60
2022-11-14T15:18:23.009Z,24.70
2022-11-14T15:21:09.375Z,23.85
2022-11-14T15:23:58.216Z,24.25
2022-11-14T15:26:44.992Z,23.77
2022-11-14T15:29:32.109Z,22.20
2022-11-14T15:32:21.369Z,23.50
2022-11-14T15:35:28.969Z,23.35
2022-11-14T15:38:43.543Z,25.20
2022-11-14T15:41:20.626Z,23.23
2022-11-14T15:44:05.929Z,21.98
2022-11-14T15:46:51.059Z,20.30
2022-11-14T15:49:36.312Z,22.73
2022-11-14T15:52:24.475Z,24.42
2022-11-14T15:55:12.496Z,22.92
2022-11-14T15:58:21.406Z,22.08
2022-11-14T16:01:02.856Z,25.33
2022-11-14T16:03:48.448Z,21.75
2022-11-14T16:06:33.449Z,23.80
2022-11-14T16:09:19.173Z,25.13
2022-11-14T16:12:04.232Z,30.70
2022-11-14T16:14:49.387Z,28.92
2022-11-14T16:17:35.792Z,27.33
2022-11-14T16:20:22.296Z,22.40
2022-11-14T16:23:07.316Z,20.80
2022-11-14T16:25:52.136Z,25.42
2022-11-14T16:28:37.165Z,22.30
2022-11-14T16:31:22.577Z,23.13
2022-11-14T16:34:07.845Z,22.45
2022-11-14T16:37:00.156Z,22.13
2022-11-14T16:39:45.236Z,25.85
2022-11-14T16:42:30.146Z,22.13
2022-11-14T16:45:20.115Z,23.80
2022-11-14T16:48:05.507Z,27.27
2022-11-14T16:50:54.176Z,34.97
2022-11-14T16:53:41.427Z,38.35
2022-11-14T16:56:26.718Z,23.30
2022-11-14T16:59:11.704Z,19.63
2022-11-14T17:01:56.863Z,18.77
2022-11-14T17:04:42.399Z,22.50
2022-11-14T17:07:30.478Z,26.75
2022-11-14T17:10:15.431Z,19.58
2022-11-14T17:13:00.504Z,23.30
2022-11-14T17:15:46.144Z,19.73
2022-11-14T17:18:35.587Z,22.55
2022-11-14T17:21:23.851Z,24.53
2022-11-14T17:24:08.802Z,21.67
2022-11-14T17:26:53.831Z,23.17
2022-11-14T17:29:38.850Z,22.80
2022-11-14T17:32:23.877Z,23.55
2022-11-14T17:35:08.975Z,26.95
2022-11-14T17:37:56.252Z,22.67
2022-11-14T17:40:45.148Z,23.67
2022-11-14T17:43:34.441Z,22.70
2022-11-14T17:46:23.536Z,21.00
2022-11-14T17:49:08.593Z,22.42
2022-11-14T17:51:53.742Z,24.67
2022-11-14T17:54:38.644Z,23.75
2022-11-14T17:57:23.667Z,24.15
2022-11-14T18:00:09.211Z,22.75
2022-11-14T18:02:53.965Z,25.23
2022-11-14T18:05:38.905Z,24.65
2022-11-14T18:08:25.762Z,28.08
2022-11-14T18:11:11.757Z,25.60
2022-11-14T18:13:57.092Z,26.00
2022-11-14T18:17:10.402Z,24.15
2022-11-14T18:19:46.713Z,27.83
2022-11-14T18:22:31.932Z,26.20
2022-11-14T18:25:17.076Z,25.90
2022-11-14T18:28:02.279Z,22.63
2022-11-14T18:30:55.516Z,33.13
2022-11-14T18:33:41.525Z,22.65
2022-11-14T18:36:26.456Z,25.45
2022-11-14T18:39:11.475Z,25.52
2022-11-14T18:41:57.519Z,30.73
2022-11-14T18:44:42.349Z,28.00
2022-11-14T18:47:28.640Z,34.40
2022-11-14T18:50:13.839Z,38.80
2022-11-14T18:52:58.960Z,35.58
2022-11-14T18:55:43.652Z,37.20
2022-11-14T18:58:28.895Z,41.65
2022-11-14T19:01:24.035Z,28.45
2022-11-14T19:04:09.817Z,37.97
2022-11-14T19:06:54.652Z,34.60
2022-11-14T19:09:39.960Z,36.10
2022-11-14T19:12:25.485Z,29.10
2022-11-14T19:15:11.179Z,27.27
2022-11-14T19:17:56.219Z,27.90
2022-11-14T19:20:41.106Z,32.67
2022-11-14T19:23:26.234Z,29.40
2022-11-14T19:26:11.716Z,25.48
2022-11-14T19:28:59.812Z,31.90
2022-11-14T19:31:54.914Z,27.23
2022-11-14T19:34:41.456Z,29.85
2022-11-14T19:37:33.544Z,28.17
2022-11-14T19:40:24.681Z,24.55
2022-11-14T19:43:15.546Z,26.08
2022-11-14T19:46:14.310Z,32.40
2022-11-14T19:49:00.364Z,36.15
2022-11-14T19:51:45.512Z,41.45
2022-11-14T19:54:30.423Z,35.63
2022-11-14T19:57:15.384Z,34.22
2022-11-14T20:00:00.260Z,29.40
2022-11-14T20:02:45.733Z,26.15
2022-11-14T20:05:31.861Z,31.98
2022-11-14T20:08:17.085Z,28.42
2022-11-14T20:11:02.687Z,27.65
2022-11-14T20:13:47.670Z,28.40
2022-11-14T20:16:33.809Z,27.70
2022-11-14T20:19:18.674Z,30.60
2022-11-14T20:22:06.338Z,38.30
2022-11-14T20:24:51.094Z,37.05
2022-11-14T20:27:36.378Z,31.98
2022-11-14T20:30:21.762Z,29.95
2022-11-14T20:33:07.316Z,28.30
2022-11-14T20:35:52.010Z,26.10
2022-11-14T20:38:37.260Z,29.23
2022-11-14T20:41:22.380Z,27.50
2022-11-14T20:44:07.368Z,30.27
2022-11-14T20:46:52.448Z,24.58
2022-11-14T20:49:37.284Z,25.90
2022-11-14T20:52:22.099Z,24.25
2022-11-14T20:55:11.615Z,30.40
2022-11-14T20:57:56.759Z,28.42
2022-11-14T21:00:41.912Z,23.73
2022-11-14T21:03:27.529Z,21.95
2022-11-14T21:06:12.776Z,22.48
2022-11-14T21:08:57.671Z,21.60
2022-11-14T21:11:42.704Z,21.33
2022-11-14T21:14:27.985Z,20.35
2022-11-14T21:17:12.936Z,19.42
2022-11-14T21:19:58.145Z,19.35
2022-11-14T21:22:44.368Z,20.83
2022-11-14T21:25:29.590Z,15.93
2022-11-14T21:28:14.339Z,22.33
2022-11-14T21:31:00.691Z,26.27
2022-11-14T21:33:47.365Z,18.85
2022-11-14T21:36:47.922Z,19.50
2022-11-14T21:39:32.994Z,20.23
2022-11-14T21:42:18.877Z,20.95
2022-11-14T21:45:04.108Z,19.88
2022-11-14T21:47:49.179Z,18.85
2022-11-14T21:50:34.248Z,18.92
2022-11-14T21:53:19.397Z,18.23
2022-11-14T21:56:11.883Z,19.38
2022-11-14T21:59:12.617Z,19.50
2022-11-14T22:02:16.329Z,19.65
2022-11-14T22:05:01.640Z,18.30
2022-11-14T22:07:46.771Z,19.90
2022-11-14T22:10:31.529Z,18.67
2022-11-14T22:13:16.871Z,16.92
2022-11-14T22:16:05.778Z,19.10
2022-11-14T22:18:54.016Z,20.00
2022-11-14T22:21:39.151Z,20.17
2022-11-14T22:24:24.089Z,22.77
2022-11-14T22:27:09.206Z,20.35
2022-11-14T22:29:54.277Z,25.10
2022-11-14T22:32:39.472Z,25.50
2022-11-14T22:35:24.309Z,22.83
2022-11-14T22:38:09.184Z,21.55
2022-11-14T22:40:55.847Z,25.80
2022-11-14T22:43:40.742Z,24.55
2022-11-14T22:46:27.039Z,24.25
2022-11-14T22:49:11.945Z,24.30
2022-11-14T22:51:57.077Z,27.42
2022-11-14T22:54:42.205Z,23.45
2022-11-14T22:57:26.924Z,23.55
2022-11-14T23:00:12.357Z,26.15
2022-11-14T23:02:57.389Z,25.63
2022-11-14T23:05:42.328Z,26.52
2022-11-14T23:08:28.590Z,24.75
2022-11-14T23:11:15.126Z,25.42
2022-11-14T23:14:00.599Z,28.77
2022-11-14T23:16:45.476Z,24.83
2022-11-14T23:19:30.227Z,25.50
2022-11-14T23:22:15.527Z,23.85
2022-11-14T23:25:00.572Z,24.35
2022-11-14T23:27:45.965Z,24.23
2022-11-14T23:30:30.757Z,24.98
2022-11-14T23:33:15.981Z,26.25
2022-11-14T23:36:01.013Z,23.50
2022-11-14T23:38:45.998Z,23.50
2022-11-14T23:41:30.745Z,24.77
2022-11-14T23:44:15.735Z,24.00
2022-11-14T23:47:01.040Z,23.08
2022-11-14T23:49:46.093Z,22.63
2022-11-14T23:52:30.856Z,24.33
2022-11-14T23:55:15.949Z,22.10
2022-11-14T23:58:01.013Z,24.63
